sensor_id;sensor_type;location;lat;lon;timestamp;P1;durP1;ratioP1;P2;durP2;ratioP2
29254;SDS011;16277;48.890;2.306;2022-09-12T03:39:00;7.77;;;5.30;;
29254;SDS011;16277;48.890;2.306;2022-09-12T03:54:05;8.67;;;7.97;;
29254;SDS011;16277;48.890;2.306;2022-09-12T04:09:09;18.77;;;12.63;;
29254;SDS011;16277;48.890;2.306;2022-09-12T04:24:14;20.77;;;13.57;;
29254;SDS011;16277;48.890;2.306;2022-09-12T04:39:18;13.90;;;11.10;;
29254;SDS011;16277;48.890;2.306;2022-09-12T04:54:23;11.50;;;9.77;;
29254;SDS011;16277;48.890;2.306;2022-09-12T05:09:27;9.60;;;8.50;;
29254;SDS011;16277;48.890;2.306;2022-09-12T05:24:32;6.63;;;5.03;;
29254;SDS011;16277;48.890;2.306;2022-09-12T05:39:37;4.63;;;4.27;;
29254;SDS011;16277;48.890;2.306;2022-09-12T05:54:41;4.57;;;4.37;;
29254;SDS011;16277;48.890;2.306;2022-09-12T06:09:46;5.37;;;4.30;;
29254;SDS011;16277;48.890;2.306;2022-09-12T06:24:50;7.20;;;4.00;;
29254;SDS011;16277;48.890;2.306;2022-09-12T06:39:59;13.77;;;5.57;;
29254;SDS011;16277;48.890;2.306;2022-09-12T06:55:04;4.17;;;3.83;;
29254;SDS011;16277;48.890;2.306;2022-09-12T07:10:10;18.17;;;3.33;;
29254;SDS011;16277;48.890;2.306;2022-09-12T07:25:14;8.23;;;3.73;;
29254;SDS011;16277;48.890;2.306;2022-09-12T07:40:19;4.80;;;4.30;;
29254;SDS011;16277;48.890;2.306;2022-09-12T07:55:24;4.60;;;4.30;;
29254;SDS011;16277;48.890;2.306;2022-09-12T08:10:29;4.07;;;3.80;;
29254;SDS011;16277;48.890;2.306;2022-09-12T08:25:33;15.73;;;6.20;;
29254;SDS011;16277;48.890;2.306;2022-09-12T08:40:40;4.40;;;3.73;;
29254;SDS011;16277;48.890;2.306;2022-09-12T08:55:51;23.67;;;9.50;;
29254;SDS011;16277;48.890;2.306;2022-09-12T09:11:01;12.00;;;8.17;;
29254;SDS011;16277;48.890;2.306;2022-09-12T09:26:13;7.07;;;4.40;;
29254;SDS011;16277;48.890;2.306;2022-09-12T09:41:32;10.47;;;5.10;;
29254;SDS011;16277;48.890;2.306;2022-09-12T09:56:45;6.13;;;5.53;;
29254;SDS011;16277;48.890;2.306;2022-09-12T10:11:50;7.53;;;5.23;;
29254;SDS011;16277;48.890;2.306;2022-09-12T10:26:56;5.17;;;3.70;;
29254;SDS011;16277;48.890;2.306;2022-09-12T10:42:11;3.00;;;2.60;;
29254;SDS011;16277;48.890;2.306;2022-09-12T10:57:28;3.30;;;2.90;;
29254;SDS011;16277;48.890;2.306;2022-09-12T11:12:47;5.87;;;3.10;;
29254;SDS011;16277;48.890;2.306;2022-09-12T11:27:59;3.90;;;1.40;;
29254;SDS011;16277;48.890;2.306;2022-09-12T11:43:33;12.10;;;2.37;;
29254;SDS011;16277;48.890;2.306;2022-09-12T11:58:41;5.37;;;1.47;;
29254;SDS011;16277;48.890;2.306;2022-09-12T12:13:49;10.87;;;2.90;;
29254;SDS011;16277;48.890;2.306;2022-09-12T12:29:00;9.10;;;4.07;;
29254;SDS011;16277;48.890;2.306;2022-09-12T12:44:37;7.63;;;2.77;;
29254;SDS011;16277;48.890;2.306;2022-09-12T12:59:53;21.77;;;4.23;;
29254;SDS011;16277;48.890;2.306;2022-09-12T13:15:00;10.13;;;2.03;;
29254;SDS011;16277;48.890;2.306;2022-09-12T13:30:07;7.60;;;1.30;;
29254;SDS011;16277;48.890;2.306;2022-09-12T13:45:17;7.67;;;1.50;;
29254;SDS011;16277;48.890;2.306;2022-09-12T14:00:24;5.80;;;1.37;;
29254;SDS011;16277;48.890;2.306;2022-09-12T14:15:30;7.67;;;1.03;;
29254;SDS011;16277;48.890;2.306;2022-09-12T14:30:38;0.67;;;0.67;;
29254;SDS011;16277;48.890;2.306;2022-09-12T14:45:43;0.80;;;0.57;;
29254;SDS011;16277;48.890;2.306;2022-09-12T15:00:58;4.60;;;0.50;;
29254;SDS011;16277;48.890;2.306;2022-09-12T15:16:07;0.60;;;0.40;;
29254;SDS011;16277;48.890;2.306;2022-09-12T15:31:14;0.77;;;0.43;;
29254;SDS011;16277;48.890;2.306;2022-09-12T15:46:25;0.50;;;0.30;;
29254;SDS011;16277;48.890;2.306;2022-09-12T16:01:29;0.20;;;0.20;;
29254;SDS011;16277;48.890;2.306;2022-09-12T16:16:34;1.87;;;0.50;;
29254;SDS011;16277;48.890;2.306;2022-09-12T16:31:38;0.73;;;0.50;;
29254;SDS011;16277;48.890;2.306;2022-09-12T16:46:43;0.77;;;0.60;;
29254;SDS011;16277;48.890;2.306;2022-09-12T17:01:47;1.03;;;1.03;;
29254;SDS011;16277;48.890;2.306;2022-09-12T17:16:52;0.70;;;0.70;;
29254;SDS011;16277;48.890;2.306;2022-09-12T17:31:56;0.63;;;0.63;;
29254;SDS011;16277;48.890;2.306;2022-09-12T17:47:01;1.33;;;1.23;;
29254;SDS011;16277;48.890;2.306;2022-09-12T18:02:09;2.07;;;1.97;;
29254;SDS011;16277;48.890;2.306;2022-09-12T18:17:17;3.30;;;3.10;;
29254;SDS011;16277;48.890;2.306;2022-09-12T18:32:22;4.00;;;3.80;;
29254;SDS011;16277;48.890;2.306;2022-09-12T18:47:28;7.47;;;6.57;;
29254;SDS011;16277;48.890;2.306;2022-09-12T19:02:32;11.57;;;9.53;;
29254;SDS011;16277;48.890;2.306;2022-09-12T19:17:37;8.70;;;8.13;;
29254;SDS011;16277;48.890;2.306;2022-09-12T19:32:42;5.00;;;4.60;;
29254;SDS011;16277;48.890;2.306;2022-09-12T19:47:47;5.07;;;4.80;;
29254;SDS011;16277;48.890;2.306;2022-09-12T20:02:51;4.40;;;4.10;;
29254;SDS011;16277;48.890;2.306;2022-09-12T20:17:56;6.60;;;2.57;;
29254;SDS011;16277;48.890;2.306;2022-09-12T20:33:01;4.00;;;3.80;;
29254;SDS011;16277;48.890;2.306;2022-09-12T20:48:05;4.70;;;4.40;;
